sensor_id;sensor_type;location;lat;lon;timestamp;P1;durP1;ratioP1;P2;durP2;ratioP2
1154;SDS011;566;48.414;9.118;2023-04-25T00:01:21;5.97;;;3.13;;
1154;SDS011;566;48.414;9.118;2023-04-25T00:03:47;6.85;;;3.20;;
1154;SDS011;566;48.414;9.118;2023-04-25T00:06:13;6.57;;;3.10;;
1154;SDS011;566;48.414;9.118;2023-04-25T00:08:39;10.82;;;4.38;;
1154;SDS011;566;48.414;9.118;2023-04-25T00:11:05;7.00;;;3.38;;
1154;SDS011;566;48.414;9.118;2023-04-25T00:13:31;8.38;;;4.68;;
1154;SDS011;566;48.414;9.118;2023-04-25T00:15:56;6.50;;;3.20;;
1154;SDS011;566;48.414;9.118;2023-04-25T00:18:22;9.85;;;4.45;;
1154;SDS011;566;48.414;9.118;2023-04-25T00:20:55;8.75;;;3.88;;
1154;SDS011;566;48.414;9.118;2023-04-25T00:23:20;10.30;;;3.42;;
1154;SDS011;566;48.414;9.118;2023-04-25T00:25:47;7.55;;;3.25;;
1154;SDS011;566;48.414;9.118;2023-04-25T00:28:13;6.30;;;3.50;;
1154;SDS011;566;48.414;9.118;2023-04-25T00:30:40;5.68;;;3.13;;
1154;SDS011;566;48.414;9.118;2023-04-25T00:33:06;7.80;;;3.20;;
1154;SDS011;566;48.414;9.118;2023-04-25T00:35:32;7.80;;;3.33;;
1154;SDS011;566;48.414;9.118;2023-04-25T00:37:57;11.90;;;3.60;;
1154;SDS011;566;48.414;9.118;2023-04-25T00:40:23;7.85;;;3.00;;
1154;SDS011;566;48.414;9.118;2023-04-25T00:42:50;7.18;;;3.10;;
1154;SDS011;566;48.414;9.118;2023-04-25T00:45:17;6.72;;;3.47;;
1154;SDS011;566;48.414;9.118;2023-04-25T00:47:43;5.85;;;3.13;;
1154;SDS011;566;48.414;9.118;2023-04-25T00:50:09;6.47;;;3.33;;
1154;SDS011;566;48.414;9.118;2023-04-25T00:52:37;8.02;;;3.40;;
1154;SDS011;566;48.414;9.118;2023-04-25T00:55:05;6.35;;;3.42;;
1154;SDS011;566;48.414;9.118;2023-04-25T00:57:30;7.85;;;3.67;;
1154;SDS011;566;48.414;9.118;2023-04-25T00:59:56;8.57;;;3.70;;
1154;SDS011;566;48.414;9.118;2023-04-25T01:02:22;6.68;;;3.40;;
1154;SDS011;566;48.414;9.118;2023-04-25T01:04:48;8.13;;;3.58;;
1154;SDS011;566;48.414;9.118;2023-04-25T01:07:13;9.77;;;3.45;;
1154;SDS011;566;48.414;9.118;2023-04-25T01:09:40;8.75;;;3.67;;
1154;SDS011;566;48.414;9.118;2023-04-25T01:12:06;7.35;;;3.72;;
1154;SDS011;566;48.414;9.118;2023-04-25T01:14:32;6.72;;;3.63;;
1154;SDS011;566;48.414;9.118;2023-04-25T01:16:58;9.68;;;3.28;;
1154;SDS011;566;48.414;9.118;2023-04-25T01:19:23;7.65;;;3.63;;
1154;SDS011;566;48.414;9.118;2023-04-25T01:21:50;9.10;;;4.47;;
1154;SDS011;566;48.414;9.118;2023-04-25T01:24:16;8.25;;;3.97;;
1154;SDS011;566;48.414;9.118;2023-04-25T01:26:42;10.30;;;4.07;;
1154;SDS011;566;48.414;9.118;2023-04-25T01:29:18;9.75;;;3.67;;
1154;SDS011;566;48.414;9.118;2023-04-25T01:31:44;7.80;;;4.18;;
1154;SDS011;566;48.414;9.118;2023-04-25T01:34:11;10.13;;;4.10;;
1154;SDS011;566;48.414;9.118;2023-04-25T01:36:36;8.35;;;4.15;;
1154;SDS011;566;48.414;9.118;2023-04-25T01:39:02;10.07;;;4.88;;
1154;SDS011;566;48.414;9.118;2023-04-25T01:41:28;13.07;;;4.55;;
1154;SDS011;566;48.414;9.118;2023-04-25T01:43:54;8.60;;;4.50;;
1154;SDS011;566;48.414;9.118;2023-04-25T01:46:20;8.85;;;4.10;;
1154;SDS011;566;48.414;9.118;2023-04-25T01:48:45;12.48;;;4.43;;
1154;SDS011;566;48.414;9.118;2023-04-25T01:51:11;10.57;;;4.57;;
1154;SDS011;566;48.414;9.118;2023-04-25T01:53:37;8.77;;;4.55;;
1154;SDS011;566;48.414;9.118;2023-04-25T01:56:03;8.25;;;4.85;;
1154;SDS011;566;48.414;9.118;2023-04-25T01:58:29;13.85;;;4.88;;
1154;SDS011;566;48.414;9.118;2023-04-25T02:00:55;9.60;;;4.40;;
1154;SDS011;566;48.414;9.118;2023-04-25T02:03:21;10.60;;;4.18;;
1154;SDS011;566;48.414;9.118;2023-04-25T02:05:46;9.85;;;4.43;;
1154;SDS011;566;48.414;9.118;2023-04-25T02:08:12;12.50;;;5.07;;
1154;SDS011;566;48.414;9.118;2023-04-25T02:10:37;7.80;;;4.50;;
1154;SDS011;566;48.414;9.118;2023-04-25T02:13:03;7.68;;;4.00;;
1154;SDS011;566;48.414;9.118;2023-04-25T02:15:30;9.75;;;4.35;;
1154;SDS011;566;48.414;9.118;2023-04-25T02:17:55;7.22;;;3.78;;
1154;SDS011;566;48.414;9.118;2023-04-25T02:20:21;8.90;;;3.65;;
1154;SDS011;566;48.414;9.118;2023-04-25T02:22:48;7.97;;;3.72;;
1154;SDS011;566;48.414;9.118;2023-04-25T02:25:14;9.63;;;4.10;;
1154;SDS011;566;48.414;9.118;2023-04-25T02:27:40;7.82;;;4.00;;
1154;SDS011;566;48.414;9.118;2023-04-25T02:30:07;8.93;;;3.70;;
1154;SDS011;566;48.414;9.118;2023-04-25T02:32:33;11.43;;;3.88;;
1154;SDS011;566;48.414;9.118;2023-04-25T02:34:59;7.63;;;3.60;;
1154;SDS011;566;48.414;9.118;2023-04-25T02:37:29;7.72;;;3.65;;
1154;SDS011;566;48.414;9.118;2023-04-25T02:39:58;7.20;;;3.80;;
1154;SDS011;566;48.414;9.118;2023-04-25T02:42:24;6.53;;;3.22;;
1154;SDS011;566;48.414;9.118;2023-04-25T02:44:51;9.32;;;3.75;;
1154;SDS011;566;48.414;9.118;2023-04-25T02:47:16;7.57;;;3.58;;
1154;SDS011;566;48.414;9.118;2023-04-25T02:49:42;8.98;;;4.35;;
1154;SDS011;566;48.414;9.118;2023-04-25T02:52:08;6.28;;;3.30;;
1154;SDS011;566;48.414;9.118;2023-04-25T02:54:33;10.23;;;3.85;;
1154;SDS011;566;48.414;9.118;2023-04-25T02:56:59;9.13;;;3.22;;
1154;SDS011;566;48.414;9.118;2023-04-25T02:59:25;6.47;;;3.30;;
1154;SDS011;566;48.414;9.118;2023-04-25T03:01:51;4.93;;;3.20;;
1154;SDS011;566;48.414;9.118;2023-04-25T03:04:16;8.98;;;3.70;;
1154;SDS011;566;48.414;9.118;2023-04-25T03:06:44;6.35;;;3.47;;
1154;SDS011;566;48.414;9.118;2023-04-25T03:09:09;10.65;;;3.70;;
1154;SDS011;566;48.414;9.118;2023-04-25T03:11:36;9.82;;;3.53;;
1154;SDS011;566;48.414;9.118;2023-04-25T03:14:03;7.03;;;3.72;;
1154;SDS011;566;48.414;9.118;2023-04-25T03:16:29;7.57;;;3.15;;
1154;SDS011;566;48.414;9.118;2023-04-25T03:18:55;12.75;;;4.00;;
1154;SDS011;566;48.414;9.118;2023-04-25T03:21:21;6.28;;;3.53;;
1154;SDS011;566;48.414;9.118;2023-04-25T03:23:47;9.35;;;3.58;;
1154;SDS011;566;48.414;9.118;2023-04-25T03:26:16;7.88;;;3.70;;
1154;SDS011;566;48.414;9.118;2023-04-25T03:28:41;6.82;;;3.60;;
1154;SDS011;566;48.414;9.118;2023-04-25T03:31:07;7.85;;;3.58;;
1154;SDS011;566;48.414;9.118;2023-04-25T03:33:32;7.45;;;3.60;;
1154;SDS011;566;48.414;9.118;2023-04-25T03:35:58;10.13;;;4.10;;
1154;SDS011;566;48.414;9.118;2023-04-25T03:38:23;7.53;;;3.70;;
1154;SDS011;566;48.414;9.118;2023-04-25T03:40:49;6.18;;;3.58;;
1154;SDS011;566;48.414;9.118;2023-04-25T03:43:16;7.35;;;3.72;;
1154;SDS011;566;48.414;9.118;2023-04-25T03:45:44;9.95;;;3.42;;
1154;SDS011;566;48.414;9.118;2023-04-25T03:48:09;9.75;;;3.85;;
1154;SDS011;566;48.414;9.118;2023-04-25T03:50:36;8.65;;;3.88;;
1154;SDS011;566;48.414;9.118;2023-04-25T03:53:01;9.45;;;3.65;;
1154;SDS011;566;48.414;9.118;2023-04-25T03:55:27;6.38;;;3.63;;
1154;SDS011;566;48.414;9.118;2023-04-25T03:57:53;10.43;;;4.10;;
1154;SDS011;566;48.414;9.118;2023-04-25T04:00:18;7.60;;;3.78;;
1154;SDS011;566;48.414;9.118;2023-04-25T04:02:44;11.05;;;3.80;;
1154;SDS011;566;48.414;9.118;2023-04-25T04:05:09;8.07;;;4.28;;
1154;SDS011;566;48.414;9.118;2023-04-25T04:07:35;8.30;;;3.90;;
1154;SDS011;566;48.414;9.118;2023-04-25T04:10:08;12.40;;;5.13;;
1154;SDS011;566;48.414;9.118;2023-04-25T04:12:35;10.27;;;4.00;;
1154;SDS011;566;48.414;9.118;2023-04-25T04:15:01;10.77;;;4.15;;
1154;SDS011;566;48.414;9.118;2023-04-25T04:17:28;11.77;;;5.95;;
1154;SDS011;566;48.414;9.118;2023-04-25T04:19:54;8.15;;;4.68;;
1154;SDS011;566;48.414;9.118;2023-04-25T04:22:20;7.22;;;3.70;;
1154;SDS011;566;48.414;9.118;2023-04-25T04:24:49;9.63;;;3.92;;
1154;SDS011;566;48.414;9.118;2023-04-25T04:27:15;7.40;;;3.20;;
1154;SDS011;566;48.414;9.118;2023-04-25T04:29:47;7.07;;;3.83;;
1154;SDS011;566;48.414;9.118;2023-04-25T04:32:13;7.47;;;3.80;;
1154;SDS011;566;48.414;9.118;2023-04-25T04:34:39;8.20;;;3.58;;
1154;SDS011;566;48.414;9.118;2023-04-25T04:37:06;9.00;;;4.13;;
1154;SDS011;566;48.414;9.118;2023-04-25T04:39:32;9.77;;;3.80;;
1154;SDS011;566;48.414;9.118;2023-04-25T04:41:59;9.23;;;3.85;;
1154;SDS011;566;48.414;9.118;2023-04-25T04:44:26;9.57;;;3.88;;
1154;SDS011;566;48.414;9.118;2023-04-25T04:46:53;11.52;;;4.90;;
1154;SDS011;566;48.414;9.118;2023-04-25T04:49:19;7.32;;;4.07;;
1154;SDS011;566;48.414;9.118;2023-04-25T04:51:44;9.88;;;4.05;;
1154;SDS011;566;48.414;9.118;2023-04-25T04:54:10;7.75;;;4.03;;
1154;SDS011;566;48.414;9.118;2023-04-25T04:56:38;9.45;;;4.50;;
1154;SDS011;566;48.414;9.118;2023-04-25T04:59:04;9.55;;;4.25;;
1154;SDS011;566;48.414;9.118;2023-04-25T05:01:29;8.25;;;4.55;;
1154;SDS011;566;48.414;9.118;2023-04-25T05:03:55;9.32;;;4.30;;
1154;SDS011;566;48.414;9.118;2023-04-25T05:06:25;9.73;;;4.20;;
1154;SDS011;566;48.414;9.118;2023-04-25T05:08:52;11.55;;;5.63;;
1154;SDS011;566;48.414;9.118;2023-04-25T05:11:18;7.80;;;4.60;;
1154;SDS011;566;48.414;9.118;2023-04-25T05:13:45;8.48;;;4.95;;
1154;SDS011;566;48.414;9.118;2023-04-25T05:16:11;13.35;;;4.68;;
1154;SDS011;566;48.414;9.118;2023-04-25T05:18:39;10.07;;;4.72;;
1154;SDS011;566;48.414;9.118;2023-04-25T05:21:05;8.27;;;3.95;;
1154;SDS011;566;48.414;9.118;2023-04-25T05:23:30;9.50;;;4.53;;
1154;SDS011;566;48.414;9.118;2023-04-25T05:25:57;10.20;;;4.63;;
1154;SDS011;566;48.414;9.118;2023-04-25T05:28:22;9.82;;;5.50;;
1154;SDS011;566;48.414;9.118;2023-04-25T05:30:48;9.15;;;5.32;;
1154;SDS011;566;48.414;9.118;2023-04-25T05:33:14;7.65;;;4.45;;
1154;SDS011;566;48.414;9.118;2023-04-25T05:35:40;6.55;;;3.58;;
1154;SDS011;566;48.414;9.118;2023-04-25T05:38:06;7.20;;;4.00;;
1154;SDS011;566;48.414;9.118;2023-04-25T05:40:32;7.22;;;3.40;;
1154;SDS011;566;48.414;9.118;2023-04-25T05:42:57;5.47;;;2.75;;
1154;SDS011;566;48.414;9.118;2023-04-25T05:45:23;10.20;;;4.55;;
1154;SDS011;566;48.414;9.118;2023-04-25T05:47:49;6.45;;;3.33;;
1154;SDS011;566;48.414;9.118;2023-04-25T05:50:14;6.40;;;2.40;;
1154;SDS011;566;48.414;9.118;2023-04-25T05:52:40;7.05;;;3.80;;
1154;SDS011;566;48.414;9.118;2023-04-25T05:55:06;8.77;;;3.50;;
1154;SDS011;566;48.414;9.118;2023-04-25T05:57:31;6.60;;;2.80;;
1154;SDS011;566;48.414;9.118;2023-04-25T05:59:57;6.38;;;2.63;;
1154;SDS011;566;48.414;9.118;2023-04-25T06:02:23;6.82;;;2.60;;
1154;SDS011;566;48.414;9.118;2023-04-25T06:04:51;6.97;;;2.47;;
1154;SDS011;566;48.414;9.118;2023-04-25T06:07:18;6.50;;;2.67;;
1154;SDS011;566;48.414;9.118;2023-04-25T06:09:44;7.38;;;2.95;;
1154;SDS011;566;48.414;9.118;2023-04-25T06:12:09;6.30;;;3.00;;
1154;SDS011;566;48.414;9.118;2023-04-25T06:14:35;4.82;;;2.47;;
1154;SDS011;566;48.414;9.118;2023-04-25T06:17:01;5.25;;;2.65;;
1154;SDS011;566;48.414;9.118;2023-04-25T06:19:32;6.03;;;2.55;;
1154;SDS011;566;48.414;9.118;2023-04-25T06:21:58;8.05;;;2.55;;
1154;SDS011;566;48.414;9.118;2023-04-25T06:24:23;7.75;;;2.92;;
1154;SDS011;566;48.414;9.118;2023-04-25T06:26:49;6.65;;;3.53;;
1154;SDS011;566;48.414;9.118;2023-04-25T06:29:14;5.43;;;2.95;;
1154;SDS011;566;48.414;9.118;2023-04-25T06:31:40;5.65;;;3.40;;
1154;SDS011;566;48.414;9.118;2023-04-25T06:34:06;9.43;;;3.92;;
1154;SDS011;566;48.414;9.118;2023-04-25T06:36:31;7.00;;;3.10;;
1154;SDS011;566;48.414;9.118;2023-04-25T06:38:57;6.45;;;3.50;;
1154;SDS011;566;48.414;9.118;2023-04-25T06:41:22;8.18;;;3.92;;
1154;SDS011;566;48.414;9.118;2023-04-25T06:43:48;7.43;;;3.20;;
1154;SDS011;566;48.414;9.118;2023-04-25T06:46:13;6.00;;;2.97;;
1154;SDS011;566;48.414;9.118;2023-04-25T06:48:39;6.85;;;3.00;;
1154;SDS011;566;48.414;9.118;2023-04-25T06:51:04;5.50;;;2.65;;
1154;SDS011;566;48.414;9.118;2023-04-25T06:53:30;5.15;;;2.92;;
1154;SDS011;566;48.414;9.118;2023-04-25T06:55:55;8.35;;;3.00;;
1154;SDS011;566;48.414;9.118;2023-04-25T06:58:21;6.10;;;2.50;;
1154;SDS011;566;48.414;9.118;2023-04-25T07:00:51;5.10;;;2.58;;
1154;SDS011;566;48.414;9.118;2023-04-25T07:03:16;5.15;;;2.75;;
1154;SDS011;566;48.414;9.118;2023-04-25T07:05:42;7.18;;;2.60;;
1154;SDS011;566;48.414;9.118;2023-04-25T07:08:07;10.15;;;3.03;;
1154;SDS011;566;48.414;9.118;2023-04-25T07:10:33;6.60;;;2.60;;
1154;SDS011;566;48.414;9.118;2023-04-25T07:12:58;6.30;;;3.13;;
1154;SDS011;566;48.414;9.118;2023-04-25T07:15:24;9.13;;;3.70;;
1154;SDS011;566;48.414;9.118;2023-04-25T07:17:50;8.00;;;3.40;;
1154;SDS011;566;48.414;9.118;2023-04-25T07:20:16;7.93;;;4.80;;
1154;SDS011;566;48.414;9.118;2023-04-25T07:22:42;15.07;;;6.10;;
1154;SDS011;566;48.414;9.118;2023-04-25T07:25:07;7.80;;;5.05;;
1154;SDS011;566;48.414;9.118;2023-04-25T07:27:33;8.75;;;4.68;;
1154;SDS011;566;48.414;9.118;2023-04-25T07:29:59;12.82;;;5.75;;
1154;SDS011;566;48.414;9.118;2023-04-25T07:32:28;9.38;;;5.05;;
1154;SDS011;566;48.414;9.118;2023-04-25T07:34:53;8.43;;;4.72;;
1154;SDS011;566;48.414;9.118;2023-04-25T07:37:19;10.68;;;5.32;;
1154;SDS011;566;48.414;9.118;2023-04-25T07:39:45;18.40;;;9.80;;
1154;SDS011;566;48.414;9.118;2023-04-25T07:42:11;19.58;;;10.90;;
1154;SDS011;566;48.414;9.118;2023-04-25T07:44:37;18.52;;;11.20;;
1154;SDS011;566;48.414;9.118;2023-04-25T07:47:07;20.10;;;12.55;;
1154;SDS011;566;48.414;9.118;2023-04-25T07:49:33;16.25;;;10.02;;
1154;SDS011;566;48.414;9.118;2023-04-25T07:52:05;11.02;;;6.00;;
1154;SDS011;566;48.414;9.118;2023-04-25T07:54:31;13.20;;;6.82;;
1154;SDS011;566;48.414;9.118;2023-04-25T07:56:57;8.30;;;5.35;;
1154;SDS011;566;48.414;9.118;2023-04-25T07:59:23;9.93;;;5.57;;
1154;SDS011;566;48.414;9.118;2023-04-25T08:01:49;14.07;;;6.88;;
1154;SDS011;566;48.414;9.118;2023-04-25T08:04:15;8.65;;;5.25;;
1154;SDS011;566;48.414;9.118;2023-04-25T08:06:40;8.70;;;4.68;;
1154;SDS011;566;48.414;9.118;2023-04-25T08:09:06;9.07;;;5.20;;
1154;SDS011;566;48.414;9.118;2023-04-25T08:11:33;9.02;;;5.35;;
1154;SDS011;566;48.414;9.118;2023-04-25T08:13:59;11.70;;;8.45;;
1154;SDS011;566;48.414;9.118;2023-04-25T08:16:24;11.25;;;6.72;;
1154;SDS011;566;48.414;9.118;2023-04-25T08:18:50;9.23;;;6.35;;
1154;SDS011;566;48.414;9.118;2023-04-25T08:21:15;9.50;;;5.53;;
1154;SDS011;566;48.414;9.118;2023-04-25T08:23:41;12.13;;;6.00;;
1154;SDS011;566;48.414;9.118;2023-04-25T08:26:07;10.35;;;6.88;;
1154;SDS011;566;48.414;9.118;2023-04-25T08:28:32;12.98;;;6.65;;
1154;SDS011;566;48.414;9.118;2023-04-25T08:30:58;15.98;;;10.13;;
1154;SDS011;566;48.414;9.118;2023-04-25T08:33:24;18.10;;;11.27;;
1154;SDS011;566;48.414;9.118;2023-04-25T08:35:50;14.27;;;6.93;;
1154;SDS011;566;48.414;9.118;2023-04-25T08:38:16;8.40;;;5.30;;
1154;SDS011;566;48.414;9.118;2023-04-25T08:40:42;12.25;;;7.07;;
1154;SDS011;566;48.414;9.118;2023-04-25T08:43:09;12.88;;;8.63;;
1154;SDS011;566;48.414;9.118;2023-04-25T08:45:41;13.18;;;6.30;;
1154;SDS011;566;48.414;9.118;2023-04-25T08:48:07;11.50;;;5.28;;
1154;SDS011;566;48.414;9.118;2023-04-25T08:50:39;12.63;;;7.72;;
1154;SDS011;566;48.414;9.118;2023-04-25T08:53:17;10.82;;;5.78;;
1154;SDS011;566;48.414;9.118;2023-04-25T08:55:47;6.97;;;4.63;;
1154;SDS011;566;48.414;9.118;2023-04-25T08:58:14;11.75;;;5.57;;
1154;SDS011;566;48.414;9.118;2023-04-25T09:00:41;7.32;;;4.05;;
1154;SDS011;566;48.414;9.118;2023-04-25T09:03:07;7.45;;;3.80;;
1154;SDS011;566;48.414;9.118;2023-04-25T09:05:33;6.00;;;3.55;;
1154;SDS011;566;48.414;9.118;2023-04-25T09:07:59;6.28;;;3.53;;
1154;SDS011;566;48.414;9.118;2023-04-25T09:10:26;7.18;;;3.60;;
1154;SDS011;566;48.414;9.118;2023-04-25T09:13:11;7.28;;;4.20;;
1154;SDS011;566;48.414;9.118;2023-04-25T09:15:49;6.47;;;4.30;;
1154;SDS011;566;48.414;9.118;2023-04-25T09:18:24;9.88;;;5.70;;
1154;SDS011;566;48.414;9.118;2023-04-25T09:20:54;8.82;;;5.32;;
1154;SDS011;566;48.414;9.118;2023-04-25T09:23:29;7.13;;;4.45;;
1154;SDS011;566;48.414;9.118;2023-04-25T09:25:55;6.82;;;3.67;;
1154;SDS011;566;48.414;9.118;2023-04-25T09:28:25;6.82;;;3.92;;
1154;SDS011;566;48.414;9.118;2023-04-25T09:30:56;5.05;;;2.60;;
1154;SDS011;566;48.414;9.118;2023-04-25T09:33:28;3.55;;;1.52;;
1154;SDS011;566;48.414;9.118;2023-04-25T09:36:01;4.25;;;1.90;;
1154;SDS011;566;48.414;9.118;2023-04-25T09:38:28;3.17;;;1.60;;
1154;SDS011;566;48.414;9.118;2023-04-25T09:41:06;5.55;;;2.75;;
1154;SDS011;566;48.414;9.118;2023-04-25T09:43:32;5.72;;;2.90;;
1154;SDS011;566;48.414;9.118;2023-04-25T09:45:57;4.07;;;1.77;;
1154;SDS011;566;48.414;9.118;2023-04-25T09:48:25;6.07;;;3.50;;
1154;SDS011;566;48.414;9.118;2023-04-25T09:51:08;2.92;;;1.80;;
1154;SDS011;566;48.414;9.118;2023-04-25T09:53:35;2.97;;;1.70;;
1154;SDS011;566;48.414;9.118;2023-04-25T09:56:06;3.97;;;2.03;;
1154;SDS011;566;48.414;9.118;2023-04-25T09:58:34;3.20;;;1.85;;
1154;SDS011;566;48.414;9.118;2023-04-25T10:01:10;3.28;;;1.90;;
1154;SDS011;566;48.414;9.118;2023-04-25T10:03:38;6.00;;;3.80;;
1154;SDS011;566;48.414;9.118;2023-04-25T10:06:08;5.32;;;1.85;;
1154;SDS011;566;48.414;9.118;2023-04-25T10:08:39;4.22;;;3.08;;
1154;SDS011;566;48.414;9.118;2023-04-25T10:11:06;5.05;;;3.30;;
1154;SDS011;566;48.414;9.118;2023-04-25T10:13:33;2.25;;;1.35;;
1154;SDS011;566;48.414;9.118;2023-04-25T10:16:00;4.65;;;3.92;;
1154;SDS011;566;48.414;9.118;2023-04-25T10:18:28;4.05;;;2.65;;
1154;SDS011;566;48.414;9.118;2023-04-25T10:20:54;3.90;;;2.08;;
1154;SDS011;566;48.414;9.118;2023-04-25T10:23:22;3.42;;;2.15;;
1154;SDS011;566;48.414;9.118;2023-04-25T10:25:49;3.67;;;2.10;;
1154;SDS011;566;48.414;9.118;2023-04-25T10:28:16;5.60;;;3.28;;
1154;SDS011;566;48.414;9.118;2023-04-25T10:33:36;3.92;;;2.20;;
1154;SDS011;566;48.414;9.118;2023-04-25T10:36:12;2.83;;;1.63;;
1154;SDS011;566;48.414;9.118;2023-04-25T10:38:49;2.55;;;1.50;;
1154;SDS011;566;48.414;9.118;2023-04-25T10:41:17;4.55;;;2.40;;
1154;SDS011;566;48.414;9.118;2023-04-25T10:43:47;4.78;;;2.42;;
1154;SDS011;566;48.414;9.118;2023-04-25T10:46:24;2.35;;;1.55;;
1154;SDS011;566;48.414;9.118;2023-04-25T10:48:51;3.42;;;1.90;;
1154;SDS011;566;48.414;9.118;2023-04-25T10:54:07;4.47;;;2.45;;
1154;SDS011;566;48.414;9.118;2023-04-25T10:56:36;2.63;;;1.58;;
1154;SDS011;566;48.414;9.118;2023-04-25T11:01:38;3.47;;;2.20;;
1154;SDS011;566;48.414;9.118;2023-04-25T11:04:30;4.90;;;2.10;;
1154;SDS011;566;48.414;9.118;2023-04-25T11:10:03;1.65;;;1.10;;
1154;SDS011;566;48.414;9.118;2023-04-25T11:12:30;2.10;;;1.40;;
1154;SDS011;566;48.414;9.118;2023-04-25T11:15:03;2.40;;;1.40;;
1154;SDS011;566;48.414;9.118;2023-04-25T11:19:56;3.10;;;1.60;;
1154;SDS011;566;48.414;9.118;2023-04-25T11:22:22;3.50;;;1.90;;
1154;SDS011;566;48.414;9.118;2023-04-25T11:24:48;3.50;;;1.83;;
1154;SDS011;566;48.414;9.118;2023-04-25T11:27:13;1.63;;;1.00;;
1154;SDS011;566;48.414;9.118;2023-04-25T11:29:40;1.40;;;1.10;;
1154;SDS011;566;48.414;9.118;2023-04-25T11:32:06;2.25;;;1.30;;
1154;SDS011;566;48.414;9.118;2023-04-25T11:34:32;3.38;;;1.90;;
1154;SDS011;566;48.414;9.118;2023-04-25T11:36:59;2.20;;;1.50;;
1154;SDS011;566;48.414;9.118;2023-04-25T11:39:27;2.47;;;1.55;;
1154;SDS011;566;48.414;9.118;2023-04-25T11:41:53;2.78;;;1.50;;
1154;SDS011;566;48.414;9.118;2023-04-25T11:44:20;3.17;;;1.60;;
1154;SDS011;566;48.414;9.118;2023-04-25T11:46:46;2.83;;;1.45;;
1154;SDS011;566;48.414;9.118;2023-04-25T11:49:12;2.50;;;1.50;;
1154;SDS011;566;48.414;9.118;2023-04-25T11:51:39;2.88;;;1.70;;
1154;SDS011;566;48.414;9.118;2023-04-25T11:54:05;1.85;;;1.20;;
1154;SDS011;566;48.414;9.118;2023-04-25T11:56:31;2.03;;;1.30;;
1154;SDS011;566;48.414;9.118;2023-04-25T11:59:00;2.53;;;1.30;;
1154;SDS011;566;48.414;9.118;2023-04-25T12:04:09;3.45;;;1.92;;
1154;SDS011;566;48.414;9.118;2023-04-25T12:06:37;3.70;;;2.45;;
1154;SDS011;566;48.414;9.118;2023-04-25T12:09:09;2.20;;;1.30;;
1154;SDS011;566;48.414;9.118;2023-04-25T12:11:45;2.60;;;1.42;;
1154;SDS011;566;48.414;9.118;2023-04-25T12:14:29;4.60;;;2.40;;
1154;SDS011;566;48.414;9.118;2023-04-25T12:16:57;15.68;;;7.13;;
1154;SDS011;566;48.414;9.118;2023-04-25T12:19:24;5.68;;;2.67;;
1154;SDS011;566;48.414;9.118;2023-04-25T12:21:51;3.20;;;1.60;;
1154;SDS011;566;48.414;9.118;2023-04-25T12:24:18;4.60;;;2.40;;
1154;SDS011;566;48.414;9.118;2023-04-25T12:29:27;3.38;;;1.88;;
1154;SDS011;566;48.414;9.118;2023-04-25T12:31:54;3.40;;;1.67;;
1154;SDS011;566;48.414;9.118;2023-04-25T12:34:21;2.50;;;1.50;;
1154;SDS011;566;48.414;9.118;2023-04-25T12:36:47;5.18;;;3.80;;
1154;SDS011;566;48.414;9.118;2023-04-25T12:41:44;4.50;;;2.72;;
1154;SDS011;566;48.414;9.118;2023-04-25T12:44:13;4.18;;;2.40;;
1154;SDS011;566;48.414;9.118;2023-04-25T12:46:39;3.80;;;2.17;;
1154;SDS011;566;48.414;9.118;2023-04-25T12:49:06;4.18;;;2.30;;
1154;SDS011;566;48.414;9.118;2023-04-25T12:51:33;3.53;;;1.80;;
1154;SDS011;566;48.414;9.118;2023-04-25T12:53:59;3.70;;;1.98;;
1154;SDS011;566;48.414;9.118;2023-04-25T12:56:26;3.17;;;1.60;;
1154;SDS011;566;48.414;9.118;2023-04-25T12:58:54;4.93;;;2.08;;
1154;SDS011;566;48.414;9.118;2023-04-25T13:01:20;5.45;;;2.47;;
1154;SDS011;566;48.414;9.118;2023-04-25T13:03:46;3.30;;;1.92;;
1154;SDS011;566;48.414;9.118;2023-04-25T13:06:13;3.10;;;1.77;;
1154;SDS011;566;48.414;9.118;2023-04-25T13:08:38;3.40;;;2.10;;
1154;SDS011;566;48.414;9.118;2023-04-25T13:11:04;4.57;;;1.90;;
1154;SDS011;566;48.414;9.118;2023-04-25T13:13:30;5.32;;;2.63;;
1154;SDS011;566;48.414;9.118;2023-04-25T13:15:56;4.50;;;2.20;;
1154;SDS011;566;48.414;9.118;2023-04-25T13:18:22;4.60;;;2.58;;
1154;SDS011;566;48.414;9.118;2023-04-25T13:20:51;3.30;;;1.90;;
1154;SDS011;566;48.414;9.118;2023-04-25T13:23:17;3.80;;;2.05;;
1154;SDS011;566;48.414;9.118;2023-04-25T13:25:43;5.70;;;2.72;;
1154;SDS011;566;48.414;9.118;2023-04-25T13:28:08;8.18;;;2.80;;
1154;SDS011;566;48.414;9.118;2023-04-25T13:30:34;2.88;;;1.60;;
1154;SDS011;566;48.414;9.118;2023-04-25T13:32:59;4.63;;;2.65;;
1154;SDS011;566;48.414;9.118;2023-04-25T13:35:28;4.60;;;1.90;;
1154;SDS011;566;48.414;9.118;2023-04-25T13:37:54;3.55;;;1.60;;
1154;SDS011;566;48.414;9.118;2023-04-25T13:40:20;4.97;;;2.60;;
1154;SDS011;566;48.414;9.118;2023-04-25T13:42:46;3.45;;;1.80;;
1154;SDS011;566;48.414;9.118;2023-04-25T13:45:11;4.20;;;1.80;;
1154;SDS011;566;48.414;9.118;2023-04-25T13:47:37;4.65;;;2.47;;
1154;SDS011;566;48.414;9.118;2023-04-25T13:50:03;7.03;;;3.67;;
1154;SDS011;566;48.414;9.118;2023-04-25T13:52:33;5.90;;;3.10;;
1154;SDS011;566;48.414;9.118;2023-04-25T13:54:59;5.88;;;2.55;;
1154;SDS011;566;48.414;9.118;2023-04-25T13:57:25;4.50;;;2.20;;
1154;SDS011;566;48.414;9.118;2023-04-25T13:59:50;4.60;;;2.35;;
1154;SDS011;566;48.414;9.118;2023-04-25T14:02:16;4.00;;;2.40;;
1154;SDS011;566;48.414;9.118;2023-04-25T14:04:42;4.78;;;2.60;;
1154;SDS011;566;48.414;9.118;2023-04-25T14:07:07;4.55;;;2.63;;
1154;SDS011;566;48.414;9.118;2023-04-25T14:09:33;4.00;;;2.28;;
1154;SDS011;566;48.414;9.118;2023-04-25T14:11:59;6.75;;;4.25;;
1154;SDS011;566;48.414;9.118;2023-04-25T14:14:25;4.70;;;2.85;;
1154;SDS011;566;48.414;9.118;2023-04-25T14:16:51;3.95;;;2.58;;
1154;SDS011;566;48.414;9.118;2023-04-25T14:19:18;6.43;;;3.72;;
1154;SDS011;566;48.414;9.118;2023-04-25T14:21:47;5.35;;;3.03;;
1154;SDS011;566;48.414;9.118;2023-04-25T14:24:13;4.53;;;2.67;;
1154;SDS011;566;48.414;9.118;2023-04-25T14:26:39;5.72;;;3.25;;
1154;SDS011;566;48.414;9.118;2023-04-25T14:29:05;7.93;;;4.30;;
1154;SDS011;566;48.414;9.118;2023-04-25T14:31:32;5.63;;;3.92;;
1154;SDS011;566;48.414;9.118;2023-04-25T14:33:58;5.97;;;3.70;;
1154;SDS011;566;48.414;9.118;2023-04-25T14:36:24;5.78;;;3.83;;
1154;SDS011;566;48.414;9.118;2023-04-25T14:38:51;5.03;;;3.17;;
1154;SDS011;566;48.414;9.118;2023-04-25T14:41:17;6.13;;;3.53;;
1154;SDS011;566;48.414;9.118;2023-04-25T14:43:42;5.13;;;2.65;;
1154;SDS011;566;48.414;9.118;2023-04-25T14:46:09;5.40;;;2.80;;
1154;SDS011;566;48.414;9.118;2023-04-25T14:48:36;5.10;;;3.10;;
1154;SDS011;566;48.414;9.118;2023-04-25T14:51:01;6.95;;;3.67;;
1154;SDS011;566;48.414;9.118;2023-04-25T14:53:27;5.45;;;3.47;;
1154;SDS011;566;48.414;9.118;2023-04-25T14:55:53;5.38;;;3.38;;
1154;SDS011;566;48.414;9.118;2023-04-25T14:58:19;5.55;;;3.25;;
1154;SDS011;566;48.414;9.118;2023-04-25T15:00:45;6.80;;;4.10;;
1154;SDS011;566;48.414;9.118;2023-04-25T15:03:11;9.85;;;3.75;;
1154;SDS011;566;48.414;9.118;2023-04-25T15:05:38;6.22;;;3.88;;
1154;SDS011;566;48.414;9.118;2023-04-25T15:08:06;4.28;;;2.80;;
1154;SDS011;566;48.414;9.118;2023-04-25T15:10:32;7.75;;;4.25;;
1154;SDS011;566;48.414;9.118;2023-04-25T15:12:58;5.30;;;3.30;;
1154;SDS011;566;48.414;9.118;2023-04-25T15:15:24;5.82;;;3.35;;
1154;SDS011;566;48.414;9.118;2023-04-25T15:17:49;4.82;;;2.97;;
1154;SDS011;566;48.414;9.118;2023-04-25T15:20:15;6.55;;;4.10;;
1154;SDS011;566;48.414;9.118;2023-04-25T15:22:41;6.15;;;3.13;;
1154;SDS011;566;48.414;9.118;2023-04-25T15:25:09;6.75;;;3.20;;
1154;SDS011;566;48.414;9.118;2023-04-25T15:27:36;10.60;;;6.32;;
1154;SDS011;566;48.414;9.118;2023-04-25T15:30:08;5.70;;;3.78;;
1154;SDS011;566;48.414;9.118;2023-04-25T15:32:38;5.97;;;3.85;;
1154;SDS011;566;48.414;9.118;2023-04-25T15:35:04;6.80;;;4.68;;
1154;SDS011;566;48.414;9.118;2023-04-25T15:37:31;7.72;;;4.47;;
1154;SDS011;566;48.414;9.118;2023-04-25T15:40:00;8.32;;;4.30;;
1154;SDS011;566;48.414;9.118;2023-04-25T15:42:50;9.40;;;4.80;;
1154;SDS011;566;48.414;9.118;2023-04-25T15:45:16;8.40;;;5.50;;
1154;SDS011;566;48.414;9.118;2023-04-25T15:47:43;10.88;;;7.15;;